Time;durP1;ratioP1;P1;durP2;ratioP2;P2;SDS_P1;SDS_P2;PMS_P1;PMS_P2;Temp;Humidity;BMP_temperature;BMP_pressure;BME280_temperature;BME280_humidity;BME280_pressure;Samples;Min_cycle;Max_cycle;Signal;HPM_P1;HPM_P2
2021/03/04 00:00:31;;;;;;;;;90.50;66.50;;;;;-1.28;80.60;101838.75;3725371;37;17659;-58
2021/03/04 00:02:58;;;;;;;;;92.50;69.00;;;;;-1.32;80.88;101837.16;3725471;37;17667;-59
2021/03/04 00:05:25;;;;;;;;;92.75;68.50;;;;;-1.41;81.41;101821.69;3725088;38;17674;-60
2021/03/04 00:07:51;;;;;;;;;90.25;67.00;;;;;-1.28;81.31;101832.56;3725111;38;17667;-59
2021/03/04 00:10:20;;;;;;;;;95.25;68.75;;;;;-1.29;81.17;101825.53;3725383;37;19836;-59
2021/03/04 00:12:48;;;;;;;;;82.25;59.50;;;;;-1.36;80.99;101823.19;3725525;38;17650;-60
2021/03/04 00:15:19;;;;;;;;;87.00;61.50;;;;;-1.38;81.12;101817.09;3725490;37;17654;-59
2021/03/04 00:17:47;;;;;;;;;82.25;59.25;;;;;-1.34;81.39;101810.69;3725296;37;19840;-59
2021/03/04 00:20:17;;;;;;;;;86.75;66.75;;;;;-1.32;81.13;101802.66;3725412;37;19809;-59
2021/03/04 00:22:43;;;;;;;;;97.00;68.25;;;;;-1.30;81.45;101795.47;3725700;38;17626;-58
2021/03/04 00:25:11;;;;;;;;;86.25;64.75;;;;;-1.33;81.27;101791.16;3725493;37;17615;-59
2021/03/04 00:27:39;;;;;;;;;88.25;66.00;;;;;-1.26;81.14;101794.38;3725629;38;19829;-59
2021/03/04 00:30:08;;;;;;;;;89.00;66.25;;;;;-1.20;81.42;101786.09;3725461;37;19783;-60
2021/03/04 00:32:35;;;;;;;;;85.75;65.25;;;;;-1.19;81.17;101786.97;3725499;38;17638;-60
2021/03/04 00:35:02;;;;;;;;;87.25;64.75;;;;;-1.24;80.94;101770.41;3725047;37;19858;-60
2021/03/04 00:37:29;;;;;;;;;81.75;60.25;;;;;-1.27;81.46;101774.06;3725509;37;19815;-59
2021/03/04 00:39:59;;;;;;;;;93.50;66.25;;;;;-1.25;81.44;101772.19;3725219;38;19782;-60
2021/03/04 00:42:26;;;;;;;;;83.75;61.50;;;;;-1.18;81.61;101764.78;3725486;38;17633;-59
2021/03/04 00:44:52;;;;;;;;;83.00;61.75;;;;;-1.19;81.29;101763.91;3725401;37;19802;-59
2021/03/04 00:47:19;;;;;;;;;86.50;63.25;;;;;-1.26;80.83;101757.19;3725041;38;20695;-60
2021/03/04 00:49:45;;;;;;;;;84.00;61.25;;;;;-1.30;81.14;101747.66;3725104;38;20669;-59
2021/03/04 00:52:12;;;;;;;;;84.50;65.25;;;;;-1.30;81.52;101745.00;3725143;37;20701;-61
2021/03/04 00:54:38;;;;;;;;;80.00;61.75;;;;;-1.25;81.07;101752.75;3724612;37;20659;-60
2021/03/04 00:57:05;;;;;;;;;84.50;61.50;;;;;-1.20;81.38;101751.56;3725164;37;20679;-60
2021/03/04 00:59:31;;;;;;;;;85.25;61.25;;;;;-1.23;81.49;101749.06;3724277;38;20655;-61
2021/03/04 01:01:57;;;;;;;;;94.00;66.25;;;;;-1.26;81.33;101733.28;3724393;38;20663;-60
2021/03/04 01:04:24;;;;;;;;;78.50;59.75;;;;;-1.26;81.18;101727.12;3724618;38;20664;-60
2021/03/04 01:06:50;;;;;;;;;78.00;58.25;;;;;-1.25;81.32;101713.75;3724373;38;20853;-60
2021/03/04 01:09:17;;;;;;;;;87.50;65.00;;;;;-1.27;81.57;101699.69;3724825;37;20639;-60
2021/03/04 01:11:44;;;;;;;;;84.00;58.75;;;;;-1.27;81.11;101706.81;3724898;37;20659;-61
2021/03/04 01:14:10;;;;;;;;;81.50;61.25;;;;;-1.29;81.21;101706.88;3724873;37;20664;-60
2021/03/04 01:16:42;;;;;;;;;79.00;54.50;;;;;-1.30;81.31;101697.22;3724760;38;20664;-61
2021/03/04 01:19:09;;;;;;;;;84.50;62.00;;;;;-1.28;81.32;101703.31;3725094;37;20650;-61
2021/03/04 01:21:35;;;;;;;;;92.50;65.25;;;;;-1.33;81.10;101708.00;3725001;38;20637;-59
2021/03/04 01:24:02;;;;;;;;;84.00;64.25;;;;;-1.37;81.21;101706.44;3725099;38;17669;-60
2021/03/04 01:26:28;;;;;;;;;76.50;57.75;;;;;-1.38;81.48;101700.25;3724901;38;20633;-60
2021/03/04 01:28:54;;;;;;;;;80.00;59.25;;;;;-1.43;80.96;101704.09;3725100;37;20612;-59
2021/03/04 01:31:21;;;;;;;;;84.75;62.50;;;;;-1.52;81.23;101704.56;3724983;37;20641;-61
2021/03/04 01:33:47;;;;;;;;;84.75;63.00;;;;;-1.50;81.27;101692.06;3725033;38;20621;-60
2021/03/04 01:36:13;;;;;;;;;70.00;57.75;;;;;-1.45;81.77;101685.56;3725017;38;20621;-60
2021/03/04 01:38:40;;;;;;;;;79.00;61.50;;;;;-1.37;81.28;101680.72;3724949;38;20611;-59
2021/03/04 01:41:06;;;;;;;;;77.25;60.25;;;;;-1.35;81.41;101684.16;3725005;38;20599;-61
2021/03/04 01:43:33;;;;;;;;;70.50;52.75;;;;;-1.34;81.65;101672.59;3725045;37;20596;-59
2021/03/04 01:46:01;;;;;;;;;74.00;59.25;;;;;-1.33;81.43;101676.97;3724513;38;21594;-58
2021/03/04 01:48:28;;;;;;;;;80.25;58.50;;;;;-1.36;81.22;101681.59;3724709;38;21582;-60
2021/03/04 01:50:55;;;;;;;;;78.75;63.00;;;;;-1.34;81.28;101682.38;3725022;37;20702;-59
2021/03/04 01:53:22;;;;;;;;;80.75;59.00;;;;;-1.43;81.34;101674.88;3725088;37;21583;-60
2021/03/04 01:55:50;;;;;;;;;82.00;62.25;;;;;-1.54;81.29;101667.47;3725192;37;21589;-59
2021/03/04 01:58:17;;;;;;;;;76.00;56.75;;;;;-1.56;81.32;101664.03;3724804;37;19703;-59
2021/03/04 02:00:43;;;;;;;;;78.25;59.75;;;;;-1.52;81.47;101664.72;3724876;37;21580;-59
2021/03/04 02:03:10;;;;;;;;;78.50;58.50;;;;;-1.47;81.59;101655.59;3724892;38;21622;-60
2021/03/04 02:05:36;;;;;;;;;76.75;59.00;;;;;-1.43;81.79;101656.28;3724854;37;21586;-60
2021/03/04 02:08:32;;;;;;;;;75.75;58.25;;;;;-1.43;81.22;101648.31;3724872;37;21584;-60
2021/03/04 02:11:06;;;;;;;;;76.50;54.50;;;;;-1.53;81.33;101636.47;3724889;37;21577;-61
2021/03/04 02:14:06;;;;;;;;;75.50;57.50;;;;;-1.44;81.63;101641.31;3724957;37;21586;-61
2021/03/04 02:16:42;;;;;;;;;75.25;57.75;;;;;-1.50;81.46;101647.78;3725004;38;21454;-61
2021/03/04 02:19:45;;;;;;;;;67.75;55.25;;;;;-1.57;81.33;101646.41;3724875;38;21561;-63
2021/03/04 02:23:06;;;;;;;;;73.00;55.00;;;;;-1.65;81.57;101631.81;3725155;37;21569;-61
2021/03/04 02:26:16;;;;;;;;;81.25;60.25;;;;;-1.69;81.56;101625.81;3724999;37;21540;-60
2021/03/04 02:28:46;;;;;;;;;78.25;58.25;;;;;-1.69;81.66;101621.38;3724987;37;21589;-61
2021/03/04 02:31:15;;;;;;;;;80.50;57.75;;;;;-1.67;81.50;101624.81;3724635;37;21530;-62
2021/03/04 02:33:46;;;;;;;;;72.50;55.25;;;;;-1.67;81.43;101619.50;3724961;37;21527;-61
2021/03/04 02:36:13;;;;;;;;;74.50;55.75;;;;;-1.59;81.87;101612.94;3725032;37;21552;-59
2021/03/04 02:38:40;;;;;;;;;72.50;56.50;;;;;-1.57;81.87;101609.25;3724820;38;21549;-60
2021/03/04 02:41:07;;;;;;;;;75.75;56.75;;;;;-1.58;81.63;101614.66;3724973;37;21523;-60
2021/03/04 02:43:36;;;;;;;;;75.25;57.50;;;;;-1.63;81.57;101606.06;3724944;37;21553;-60
2021/03/04 02:46:03;;;;;;;;;73.25;55.75;;;;;-1.70;81.57;101601.06;3725012;38;21523;-59
2021/03/04 02:48:31;;;;;;;;;75.00;54.25;;;;;-1.71;81.64;101604.66;3724922;38;21540;-59
2021/03/04 02:51:00;;;;;;;;;64.50;45.00;;;;;-1.71;82.02;101593.19;3724472;37;21521;-59
2021/03/04 02:53:28;;;;;;;;;70.75;54.75;;;;;-1.70;81.61;101584.28;3725074;38;21537;-60
2021/03/04 02:55:55;;;;;;;;;74.50;54.00;;;;;-1.69;81.87;101591.31;3724893;38;21519;-61
2021/03/04 02:58:25;;;;;;;;;70.50;52.50;;;;;-1.73;81.99;101589.75;3724835;38;21829;-60
2021/03/04 03:00:52;;;;;;;;;73.00;55.50;;;;;-1.78;81.63;101591.78;3724899;37;21509;-60
2021/03/04 03:03:24;;;;;;;;;61.00;45.75;;;;;-1.76;81.97;101596.09;3724971;37;21502;-61
2021/03/04 03:05:51;;;;;;;;;67.25;52.50;;;;;-1.70;82.16;101590.47;3724570;37;21523;-60
2021/03/04 03:08:19;;;;;;;;;71.50;55.00;;;;;-1.74;81.71;101583.59;3724884;38;21528;-60
2021/03/04 03:10:49;;;;;;;;;65.00;50.50;;;;;-1.78;81.77;101584.69;3724819;37;21511;-59
2021/03/04 03:13:18;;;;;;;;;72.50;58.25;;;;;-1.80;81.76;101577.75;3724452;38;21513;-60
2021/03/04 03:15:44;;;;;;;;;63.00;50.00;;;;;-1.81;81.56;101574.22;3724908;38;21479;-60
2021/03/04 03:18:12;;;;;;;;;81.75;55.25;;;;;-1.77;81.85;101572.28;3724960;38;21493;-60
2021/03/04 03:20:39;;;;;;;;;63.25;51.00;;;;;-1.78;81.99;101574.06;3724403;37;21493;-60
2021/03/04 03:23:05;;;;;;;;;69.75;52.50;;;;;-1.88;81.62;101562.22;3724842;37;21473;-60
2021/03/04 03:25:32;;;;;;;;;75.50;54.75;;;;;-1.83;81.98;101570.81;3724954;38;21483;-59
2021/03/04 03:27:58;;;;;;;;;72.25;52.25;;;;;-1.81;82.06;101568.06;3724949;37;21494;-59
2021/03/04 03:30:26;;;;;;;;;72.50;53.25;;;;;-1.76;82.23;101566.88;3724812;37;21478;-59
2021/03/04 03:32:58;;;;;;;;;74.00;55.25;;;;;-1.70;82.03;101566.56;3725100;37;21479;-60
2021/03/04 03:35:27;;;;;;;;;75.25;55.75;;;;;-1.62;82.09;101558.22;3725030;37;21458;-60
2021/03/04 03:37:58;;;;;;;;;71.50;53.25;;;;;-1.71;82.04;101569.31;3724897;37;21475;-59
2021/03/04 03:40:25;;;;;;;;;71.75;55.50;;;;;-1.79;81.70;101559.09;3724820;38;21437;-60
2021/03/04 03:42:56;;;;;;;;;72.50;55.00;;;;;-1.80;81.91;101562.69;3724975;37;21469;-60
2021/03/04 03:45:34;;;;;;;;;71.25;54.00;;;;;-1.76;81.78;101560.72;3725019;37;21435;-59
2021/03/04 03:48:08;;;;;;;;;76.75;56.50;;;;;-1.74;82.08;101562.37;3724927;38;21428;-60
2021/03/04 03:50:36;;;;;;;;;76.75;58.75;;;;;-1.79;82.10;101551.13;3724991;38;21442;-60
2021/03/04 03:53:06;;;;;;;;;81.00;58.75;;;;;-1.76;82.05;101552.75;3724706;37;21430;-60
2021/03/04 03:55:33;;;;;;;;;74.00;55.75;;;;;-1.78;82.01;101547.53;3725025;37;21443;-61
2021/03/04 03:58:04;;;;;;;;;80.25;59.50;;;;;-1.73;82.16;101549.94;3724560;37;21425;-59
2021/03/04 04:00:32;;;;;;;;;83.75;60.75;;;;;-1.68;82.02;101548.78;3724963;37;21437;-60
2021/03/04 04:03:03;;;;;;;;;75.00;54.00;;;;;-1.64;82.36;101545.97;3724948;38;21429;-60
2021/03/04 04:05:31;;;;;;;;;74.50;57.75;;;;;-1.57;82.53;101534.94;3725075;37;21421;-59
2021/03/04 04:07:59;;;;;;;;;78.25;59.75;;;;;-1.56;82.18;101530.47;3724463;38;21396;-60
2021/03/04 04:10:28;;;;;;;;;75.75;61.50;;;;;-1.63;81.94;101523.78;3724968;37;21395;-61
2021/03/04 04:12:55;;;;;;;;;70.75;54.25;;;;;-1.73;81.58;101526.94;3724928;37;21397;-62
2021/03/04 04:15:23;;;;;;;;;78.75;59.50;;;;;-1.75;82.12;101528.81;3724979;37;21413;-60
2021/03/04 04:17:50;;;;;;;;;73.25;56.25;;;;;-1.69;82.10;101514.34;3724993;37;21400;-60
2021/03/04 04:20:19;;;;;;;;;73.25;56.00;;;;;-1.71;82.00;101519.75;3725286;37;21400;-59
2021/03/04 04:22:46;;;;;;;;;77.75;58.00;;;;;-1.72;82.11;101514.50;3725045;38;21387;-58
2021/03/04 04:25:13;;;;;;;;;87.25;61.50;;;;;-1.70;81.72;101502.88;3725129;37;21400;-59
2021/03/04 04:27:40;;;;;;;;;81.75;61.75;;;;;-1.72;82.18;101499.44;3725041;37;21403;-59
2021/03/04 04:30:09;;;;;;;;;86.00;62.00;;;;;-1.70;82.21;101496.72;3724967;37;21390;-62
2021/03/04 04:32:38;;;;;;;;;78.75;59.25;;;;;-1.71;82.01;101495.00;3724987;37;21366;-59
2021/03/04 04:35:09;;;;;;;;;81.50;60.00;;;;;-1.72;82.23;101493.28;3725021;38;21366;-59
2021/03/04 04:37:35;;;;;;;;;91.00;61.25;;;;;-1.72;82.25;101483.53;3725084;38;21356;-59
2021/03/04 04:40:01;;;;;;;;;86.50;62.25;;;;;-1.69;81.72;101485.16;3725169;38;21661;-59
2021/03/04 04:42:27;;;;;;;;;83.25;60.75;;;;;-1.64;81.87;101484.91;3725036;37;21378;-59
2021/03/04 04:44:53;;;;;;;;;86.50;63.75;;;;;-1.57;82.21;101481.00;3725252;37;21353;-60
2021/03/04 04:47:20;;;;;;;;;88.75;62.75;;;;;-1.52;81.88;101474.47;3725279;38;21280;-59
2021/03/04 04:49:46;;;;;;;;;90.50;66.25;;;;;-1.47;82.33;101467.09;3725344;38;18384;-58
2021/03/04 04:52:12;;;;;;;;;90.50;66.50;;;;;-1.46;81.67;101465.31;3725557;37;18405;-59
2021/03/04 04:54:38;;;;;;;;;93.75;66.75;;;;;-1.46;82.13;101454.69;3725381;37;18409;-59
2021/03/04 04:57:05;;;;;;;;;79.25;65.00;;;;;-1.36;82.08;101442.63;3725287;37;21369;-59
2021/03/04 04:59:32;;;;;;;;;98.00;66.75;;;;;-1.30;81.96;101444.94;3725972;38;21357;-60
2021/03/04 05:01:58;;;;;;;;;81.75;62.25;;;;;-1.23;82.01;101446.28;3724765;37;21356;-59
2021/03/04 05:04:25;;;;;;;;;67.50;53.50;;;;;-1.08;82.20;101449.88;3725036;37;21357;-59
2021/03/04 05:06:51;;;;;;;;;85.75;61.25;;;;;-0.89;82.13;101452.31;3725038;37;21314;-61
2021/03/04 05:09:17;;;;;;;;;94.75;64.50;;;;;-0.75;82.24;101450.59;3725077;37;21331;-60
2021/03/04 05:11:43;;;;;;;;;93.75;70.00;;;;;-0.69;82.21;101433.44;3725132;38;21319;-60
2021/03/04 05:14:09;;;;;;;;;88.00;66.00;;;;;-0.64;82.04;101425.19;3724913;38;18380;-60
2021/03/04 05:16:36;;;;;;;;;78.50;62.25;;;;;-0.62;81.99;101416.16;3725045;37;18370;-60
2021/03/04 05:19:03;;;;;;;;;84.50;62.00;;;;;-0.58;81.94;101414.19;3724451;38;21318;-59
2021/03/04 05:21:29;;;;;;;;;78.00;60.50;;;;;-0.49;81.95;101425.09;3724808;38;21326;-60
2021/03/04 05:23:56;;;;;;;;;82.00;61.50;;;;;-0.45;81.88;101416.00;3724894;38;21299;-61
2021/03/04 05:26:22;;;;;;;;;79.00;58.25;;;;;-0.32;81.74;101418.78;3724966;37;21317;-60
2021/03/04 05:28:48;;;;;;;;;83.00;58.50;;;;;-0.21;82.06;101407.47;3725090;37;21307;-59
2021/03/04 05:31:14;;;;;;;;;94.50;67.25;;;;;-0.14;81.73;101399.03;3725000;37;21292;-60
2021/03/04 05:33:41;;;;;;;;;81.25;59.00;;;;;0.02;81.97;101400.72;3725258;38;18328;-60
2021/03/04 05:36:09;;;;;;;;;66.00;53.75;;;;;0.14;81.96;101397.28;3725222;38;21312;-59
2021/03/04 05:38:36;;;;;;;;;63.25;49.00;;;;;0.25;81.99;101382.37;3725148;38;21268;-60
2021/03/04 05:41:02;;;;;;;;;70.75;54.00;;;;;0.38;81.56;101381.59;3725133;38;21281;-60
2021/03/04 05:43:29;;;;;;;;;70.50;53.50;;;;;0.45;81.68;101377.56;3725009;38;21280;-60
2021/03/04 05:45:57;;;;;;;;;63.50;49.25;;;;;0.61;81.79;101386.25;3725107;37;21272;-60
2021/03/04 05:48:26;;;;;;;;;69.50;49.50;;;;;0.67;81.72;101388.53;3725127;37;21282;-58
2021/03/04 05:50:54;;;;;;;;;60.75;45.50;;;;;0.73;81.47;101384.62;3725404;37;21265;-60
2021/03/04 05:53:22;;;;;;;;;54.25;43.00;;;;;0.76;81.46;101390.59;3725164;37;21292;-60
2021/03/04 05:55:52;;;;;;;;;60.25;48.25;;;;;0.90;81.68;101379.87;3725301;38;21284;-59
2021/03/04 05:58:19;;;;;;;;;62.00;48.75;;;;;1.02;81.55;101385.38;3725186;37;21270;-59
2021/03/04 06:00:45;;;;;;;;;66.75;48.75;;;;;1.09;81.46;101391.97;3725170;37;21270;-58
2021/03/04 06:03:12;;;;;;;;;66.75;49.25;;;;;1.25;81.46;101379.31;3725242;37;21266;-60
2021/03/04 06:05:39;;;;;;;;;61.75;47.75;;;;;1.37;81.52;101377.62;3725050;38;21612;-58
2021/03/04 06:08:07;;;;;;;;;68.00;49.50;;;;;1.37;81.16;101369.63;3724864;38;21266;-59
2021/03/04 06:10:34;;;;;;;;;63.00;50.50;;;;;1.42;81.04;101360.38;3724949;38;21252;-59
2021/03/04 06:13:01;;;;;;;;;68.25;51.75;;;;;1.61;81.33;101363.44;3725045;37;21238;-59
2021/03/04 06:15:28;;;;;;;;;68.50;54.50;;;;;1.67;80.96;101346.16;3725154;37;21225;-58
2021/03/04 06:17:59;;;;;;;;;75.75;53.75;;;;;1.78;80.82;101356.09;3724577;37;21227;-60
2021/03/04 06:20:46;;;;;;;;;67.25;50.50;;;;;1.80;80.74;101341.66;3725050;37;21251;-60
2021/03/04 06:23:13;;;;;;;;;63.00;46.00;;;;;1.87;80.86;101337.59;3725049;38;21224;-59
2021/03/04 06:25:40;;;;;;;;;64.00;49.50;;;;;1.96;80.46;101354.78;3724644;37;21231;-61
2021/03/04 06:28:09;;;;;;;;;69.75;51.00;;;;;2.01;80.02;101339.31;3725099;37;21589;-60
2021/03/04 06:30:44;;;;;;;;;69.75;52.75;;;;;2.13;80.28;101343.75;3724944;38;21210;-59
2021/03/04 06:33:12;;;;;;;;;65.00;48.50;;;;;2.11;80.00;101340.31;3725107;37;21192;-61
2021/03/04 06:35:44;;;;;;;;;63.00;49.00;;;;;2.16;79.81;101340.84;3725193;37;21214;-62
2021/03/04 06:38:20;;;;;;;;;63.25;49.25;;;;;2.30;79.84;101353.22;3725146;37;21208;-62
2021/03/04 06:40:49;;;;;;;;;57.50;47.00;;;;;2.43;79.91;101343.34;3725176;38;21207;-61
2021/03/04 06:43:27;;;;;;;;;60.50;49.50;;;;;2.59;79.58;101337.72;3725183;37;21222;-60
2021/03/04 06:46:04;;;;;;;;;58.50;45.75;;;;;2.73;79.37;101336.69;3725160;38;21194;-62
2021/03/04 06:48:30;;;;;;;;;67.75;51.75;;;;;2.75;78.91;101337.41;3725239;38;21198;-61
2021/03/04 06:51:01;;;;;;;;;55.25;45.00;;;;;2.78;78.75;101339.88;3725214;37;21204;-61
2021/03/04 06:53:29;;;;;;;;;61.75;48.25;;;;;2.86;79.07;101343.69;3725252;38;21205;-60
2021/03/04 06:56:04;;;;;;;;;69.25;50.25;;;;;3.04;78.85;101346.78;3725345;37;21172;-60
2021/03/04 06:58:39;;;;;;;;;68.75;51.00;;;;;3.18;78.88;101341.22;3725290;38;21183;-65
2021/03/04 07:01:16;;;;;;;;;63.00;49.75;;;;;3.35;78.55;101350.62;3724715;38;21194;-58
2021/03/04 07:03:50;;;;;;;;;59.75;45.75;;;;;3.45;78.02;101332.91;3725180;38;21176;-60
2021/03/04 07:06:21;;;;;;;;;57.25;45.50;;;;;3.61;77.76;101330.75;3725210;37;21187;-60
2021/03/04 07:08:49;;;;;;;;;62.00;47.75;;;;;3.72;77.50;101329.03;3725082;38;21168;-60
2021/03/04 07:11:25;;;;;;;;;55.25;43.75;;;;;3.98;77.45;101319.78;3725126;38;21185;-61
2021/03/04 07:13:57;;;;;;;;;59.75;46.25;;;;;4.20;76.91;101322.44;3725314;37;21151;-65
2021/03/04 07:16:40;;;;;;;;;60.50;46.25;;;;;4.46;76.87;101316.78;3725095;37;21170;-61
2021/03/04 07:19:10;;;;;;;;;59.00;44.75;;;;;4.64;75.77;101312.59;3724922;37;21155;-60
2021/03/04 07:21:44;;;;;;;;;62.50;46.75;;;;;4.79;75.47;101311.28;3725078;38;21150;-60
2021/03/04 07:24:12;;;;;;;;;56.00;44.25;;;;;4.93;74.95;101304.78;3725112;38;21155;-61
2021/03/04 07:26:39;;;;;;;;;63.50;47.00;;;;;5.15;74.51;101299.31;3725199;38;21145;-65
2021/03/04 07:29:10;;;;;;;;;59.00;46.00;;;;;5.31;73.80;101288.94;3725114;38;21149;-63
2021/03/04 07:31:46;;;;;;;;;64.25;48.00;;;;;5.36;72.70;101276.97;3725588;38;21143;-61
2021/03/04 07:34:20;;;;;;;;;60.25;46.50;;;;;5.55;72.87;101267.19;3725639;37;21117;-64
2021/03/04 07:36:49;;;;;;;;;61.25;46.50;;;;;5.65;72.28;101265.41;3726686;37;21150;-65
2021/03/04 07:39:41;;;;;;;;;60.50;48.00;;;;;5.83;71.88;101267.41;3725356;38;21134;-64
2021/03/04 07:42:22;;;;;;;;;67.00;48.75;;;;;5.86;71.64;101264.47;3725136;38;21056;-64
2021/03/04 07:44:51;;;;;;;;;61.25;47.75;;;;;5.82;70.85;101253.13;3724664;37;21112;-64
2021/03/04 07:47:29;;;;;;;;;69.00;52.25;;;;;5.92;70.98;101254.06;3725047;37;20222;-64
2021/03/04 07:49:56;;;;;;;;;60.25;48.75;;;;;6.02;70.30;101242.50;3725378;37;20298;-61
2021/03/04 07:52:25;;;;;;;;;59.00;45.25;;;;;5.84;69.70;101244.94;3725471;37;20220;-64
2021/03/04 07:55:07;;;;;;;;;58.25;43.75;;;;;5.83;69.76;101243.25;3725502;37;20273;-63
2021/03/04 07:57:48;;;;;;;;;63.75;49.50;;;;;5.81;70.05;101237.16;3725626;37;20396;-60
2021/03/04 08:00:16;;;;;;;;;56.75;46.25;;;;;5.81;69.90;101239.84;3725515;38;20197;-63
2021/03/04 08:02:43;;;;;;;;;62.00;50.50;;;;;5.91;70.02;101246.97;3725440;37;20211;-61
2021/03/04 08:05:33;;;;;;;;;65.50;48.25;;;;;6.00;70.01;101229.19;3725457;37;20190;-62
2021/03/04 08:08:17;;;;;;;;;62.00;47.25;;;;;6.15;69.23;101235.03;3725223;37;20195;-64
2021/03/04 08:10:54;;;;;;;;;64.00;48.75;;;;;6.08;69.07;101226.66;3725271;38;20178;-61
2021/03/04 08:13:38;;;;;;;;;59.00;46.50;;;;;6.20;69.24;101222.03;3725681;38;20185;-62
2021/03/04 08:16:15;;;;;;;;;59.00;45.00;;;;;6.07;68.72;101222.28;3725157;37;20184;-60
2021/03/04 08:18:43;;;;;;;;;63.75;45.75;;;;;6.03;68.80;101207.44;3725398;37;20194;-61
2021/03/04 08:21:09;;;;;;;;;63.25;49.25;;;;;6.09;69.21;101209.56;3725454;37;20180;-62
2021/03/04 08:23:45;;;;;;;;;60.00;46.50;;;;;6.11;68.70;101199.53;3725657;38;20180;-65
2021/03/04 08:26:36;;;;;;;;;64.00;50.25;;;;;6.12;68.68;101187.78;3725596;37;20176;-62
2021/03/04 08:29:10;;;;;;;;;55.25;39.50;;;;;6.01;68.76;101185.22;3725715;37;20166;-61
2021/03/04 08:31:48;;;;;;;;;62.25;46.00;;;;;6.10;68.78;101192.44;3725497;38;20162;-62
2021/03/04 08:34:15;;;;;;;;;60.75;47.50;;;;;6.10;69.27;101183.53;3725604;37;20173;-61
2021/03/04 08:36:48;;;;;;;;;54.50;45.50;;;;;6.15;69.32;101171.38;3725571;37;20173;-62
2021/03/04 08:39:15;;;;;;;;;64.00;50.75;;;;;6.20;69.19;101174.50;3725542;37;20147;-62
2021/03/04 08:41:42;;;;;;;;;60.75;45.75;;;;;6.21;68.86;101175.34;3725576;37;20153;-62
2021/03/04 08:44:16;;;;;;;;;59.00;45.00;;;;;6.16;69.14;101174.91;3725416;38;20135;-60
2021/03/04 08:46:47;;;;;;;;;62.00;46.25;;;;;6.23;69.23;101168.84;3725367;37;20158;-62
2021/03/04 08:49:18;;;;;;;;;55.25;44.25;;;;;6.29;68.99;101175.47;3725199;38;20149;-62
2021/03/04 08:51:49;;;;;;;;;58.75;45.50;;;;;6.25;69.37;101156.09;3725526;38;20118;-61
2021/03/04 08:54:23;;;;;;;;;56.00;43.25;;;;;6.57;69.36;101158.50;3725261;37;20145;-61
2021/03/04 08:57:07;;;;;;;;;58.75;46.75;;;;;6.63;68.49;101154.38;3725609;38;20134;-61
2021/03/04 08:59:38;;;;;;;;;64.50;47.00;;;;;6.77;68.50;101143.16;3725666;37;20143;-62
2021/03/04 09:02:14;;;;;;;;;68.00;52.25;;;;;6.91;68.17;101131.94;3725501;38;20118;-63
2021/03/04 09:04:40;;;;;;;;;64.00;46.50;;;;;7.01;68.48;101136.44;3725616;38;20104;-61
2021/03/04 09:07:06;;;;;;;;;63.75;49.25;;;;;7.08;68.06;101138.41;3725602;37;20142;-64
2021/03/04 09:09:33;;;;;;;;;59.50;46.75;;;;;7.22;67.99;101137.94;3725499;37;20107;-63
2021/03/04 09:12:02;;;;;;;;;57.00;46.25;;;;;7.36;66.97;101133.03;3725460;37;20101;-63
2021/03/04 09:14:34;;;;;;;;;61.50;48.50;;;;;7.55;67.21;101133.78;3725515;37;20477;-62
2021/03/04 09:17:01;;;;;;;;;71.50;54.75;;;;;7.70;67.16;101134.12;3725578;37;20122;-62
2021/03/04 09:19:39;;;;;;;;;63.75;49.75;;;;;7.87;66.23;101135.97;3725311;37;20093;-62
2021/03/04 09:22:08;;;;;;;;;59.75;48.00;;;;;8.01;65.87;101128.37;3725368;37;20102;-64
2021/03/04 09:24:38;;;;;;;;;70.50;53.25;;;;;8.13;65.93;101125.31;3725364;37;20111;-61
2021/03/04 09:27:14;;;;;;;;;68.75;52.75;;;;;8.26;65.67;101115.00;3725365;37;20112;-62
2021/03/04 09:29:44;;;;;;;;;69.75;53.00;;;;;8.35;64.36;101120.47;3725530;37;20099;-63
2021/03/04 09:32:11;;;;;;;;;64.25;50.75;;;;;8.34;63.85;101108.81;3725435;37;20097;-62
2021/03/04 09:34:39;;;;;;;;;69.00;51.00;;;;;8.49;64.41;101109.97;3725478;37;20073;-62
2021/03/04 09:37:27;;;;;;;;;68.50;52.00;;;;;8.73;63.98;101097.66;3725463;37;20079;-62
2021/03/04 09:39:56;;;;;;;;;66.25;51.00;;;;;8.85;62.93;101088.28;3725452;38;20060;-62
2021/03/04 09:42:42;;;;;;;;;67.50;49.75;;;;;8.89;62.50;101065.34;3725424;38;20079;-62
2021/03/04 09:45:11;;;;;;;;;68.75;51.00;;;;;9.08;61.46;101072.38;3725435;37;20055;-61
2021/03/04 09:47:46;;;;;;;;;70.00;53.25;;;;;9.19;61.53;101053.19;3724757;37;20990;-63
2021/03/04 09:50:26;;;;;;;;;65.00;50.50;;;;;9.42;61.60;101056.12;3724972;38;20959;-62
2021/03/04 09:53:06;;;;;;;;;67.75;52.75;;;;;9.56;61.07;101056.34;3724888;38;20968;-61
2021/03/04 09:55:41;;;;;;;;;66.00;51.25;;;;;9.65;60.08;101056.38;3724694;38;20972;-61
2021/03/04 09:58:22;;;;;;;;;69.00;53.00;;;;;9.84;59.63;101053.38;3725006;37;20939;-62
2021/03/04 10:00:59;;;;;;;;;66.75;49.75;;;;;10.02;57.93;101039.66;3724581;38;20972;-61
2021/03/04 10:03:37;;;;;;;;;64.00;47.25;;;;;10.15;57.71;101031.91;3724555;38;20942;-61
2021/03/04 10:06:06;;;;;;;;;62.50;49.25;;;;;10.36;56.24;101037.69;3725107;38;20933;-63
2021/03/04 10:08:42;;;;;;;;;61.25;47.00;;;;;10.52;56.36;101025.97;3724878;37;20958;-61
2021/03/04 10:11:19;;;;;;;;;65.25;48.00;;;;;10.65;55.37;101030.84;3725478;37;20944;-61
2021/03/04 10:13:45;;;;;;;;;61.00;48.25;;;;;10.84;54.22;101020.47;3725488;37;20935;-60
2021/03/04 10:16:14;;;;;;;;;57.75;45.75;;;;;11.03;51.93;101029.19;3725221;38;20933;-61
2021/03/04 10:19:03;;;;;;;;;59.50;47.50;;;;;11.12;51.96;101014.59;3725252;37;20916;-60
2021/03/04 10:21:29;;;;;;;;;58.75;45.50;;;;;11.17;51.16;101014.94;3725002;37;20920;-61
2021/03/04 10:23:55;;;;;;;;;60.75;48.00;;;;;11.35;51.24;101004.69;3725201;38;20934;-63
2021/03/04 10:26:21;;;;;;;;;62.75;48.00;;;;;11.61;49.59;101009.75;3725784;38;21313;-62
2021/03/04 10:28:49;;;;;;;;;57.75;45.75;;;;;11.80;49.85;101001.19;3732021;37;20916;-61
2021/03/04 10:31:18;;;;;;;;;54.75;43.25;;;;;11.85;48.70;100993.34;3732050;37;20930;-61
2021/03/04 10:33:44;;;;;;;;;58.00;44.50;;;;;11.97;49.49;101001.03;3730621;37;20915;-60
2021/03/04 10:36:12;;;;;;;;;58.00;43.75;;;;;12.09;47.24;100995.00;3733005;38;21126;-61
2021/03/04 10:38:39;;;;;;;;;55.50;44.25;;;;;12.21;46.75;100988.12;3732158;37;20917;-61
2021/03/04 10:41:05;;;;;;;;;55.00;43.25;;;;;12.30;46.29;100975.31;3733027;37;20883;-61
2021/03/04 10:43:37;;;;;;;;;57.50;44.00;;;;;12.41;46.25;100974.03;3730305;37;20885;-64
2021/03/04 10:46:03;;;;;;;;;57.25;44.50;;;;;12.47;46.41;100960.56;3725749;37;20883;-62
2021/03/04 10:48:30;;;;;;;;;65.75;47.75;;;;;12.60;46.11;100963.44;3725638;37;20899;-62
2021/03/04 10:50:56;;;;;;;;;58.50;47.25;;;;;12.69;46.01;100952.47;3725830;37;20880;-61
2021/03/04 10:53:36;;;;;;;;;60.75;47.50;;;;;12.82;46.63;100956.22;3725577;38;20954;-62
2021/03/04 10:56:03;;;;;;;;;56.00;43.50;;;;;12.85;43.74;100944.12;3725544;38;20885;-62
2021/03/04 10:58:29;;;;;;;;;55.25;43.50;;;;;12.96;43.21;100948.25;3725777;37;20875;-64
2021/03/04 11:00:56;;;;;;;;;50.25;41.50;;;;;13.02;42.16;100942.03;3725662;38;20867;-64
2021/03/04 11:03:22;;;;;;;;;49.75;39.75;;;;;13.13;41.74;100927.97;3725341;37;20764;-61
2021/03/04 11:05:49;;;;;;;;;40.75;34.00;;;;;13.23;41.74;100915.78;3725226;38;20743;-60
2021/03/04 11:08:15;;;;;;;;;40.75;32.50;;;;;13.27;40.74;100916.25;3725074;37;20752;-60
2021/03/04 11:10:42;;;;;;;;;38.00;33.25;;;;;13.31;39.15;100909.38;3724900;37;20749;-61
2021/03/04 11:13:09;;;;;;;;;38.50;32.75;;;;;13.42;39.79;100889.00;3724945;38;20735;-62
2021/03/04 11:15:35;;;;;;;;;29.75;28.75;;;;;13.69;38.09;100880.03;3724874;38;20741;-62
2021/03/04 11:18:01;;;;;;;;;34.25;27.50;;;;;13.83;37.79;100886.44;3724982;38;20745;-61
2021/03/04 11:20:27;;;;;;;;;35.25;29.50;;;;;13.91;37.00;100894.47;3725034;38;20913;-62
2021/03/04 11:22:54;;;;;;;;;32.50;31.25;;;;;14.10;36.75;100880.13;3724922;37;20742;-63
2021/03/04 11:25:21;;;;;;;;;34.25;30.75;;;;;14.16;36.49;100876.63;3724879;38;20720;-64